Time;durP1;ratioP1;P1;durP2;ratioP2;P2;SDS_P1;SDS_P2;PMS_P1;PMS_P2;Temp;Humidity;BMP_temperature;BMP_pressure;BME280_temperature;BME280_humidity;BME280_pressure;Samples;Min_cycle;Max_cycle;Signal;HPM_P1;HPM_P2
2023/09/05 00:02:01;;;;;;;;;;;;;;;;;;6241843;22;19946;-95
2023/09/05 00:41:05;;;;;;;;;;;;;;;;;;6272573;22;19934;-94
2023/09/05 00:49:05;;;;;;;;;;;;;;;;;;6265513;22;19922;-95
2023/09/05 00:54:13;;;;;;;;;;;;;;;;;;6268355;22;20361;-96
2023/09/05 01:25:17;;;;;;;;;;;;;;;;;;6262610;22;19925;-95
2023/09/05 02:01:30;;;;;;;;;;;;;;;;;;;;;
2023/09/05 02:11:51;;;;;;;;;;;;;;;;;;6257187;22;21111;-94
2023/09/05 03:16:50;;;;;;;;;;;;;;;;;;6261352;22;19967;-95
2023/09/05 03:50:39;;;;;;;;;;;;;;;;;;6280267;22;19990;-96
2023/09/05 04:21:57;;;;;;;;;;;;;;;;;;6266548;22;19923;-94
2023/09/05 04:24:23;;;;;;;;;;;;;;;;;;6233440;22;19943;-96
2023/09/05 06:20:40;;;;;;;;;;;;;;;;;;6282823;22;19990;-96
2023/09/05 06:33:50;;;;;;;;;;;;;;;;;;6286211;22;19959;-96
2023/09/05 06:36:31;;;;;;;;;;;;;;;;;;6251783;22;19919;-95
2023/09/05 06:41:51;;;;;;;;;;;;;;;;;;6251875;23;19911;-96
2023/09/05 06:44:17;;;;;;;;;;;;;;;;;;6248609;23;19906;-95
2023/09/05 06:46:46;;;;;;;;;;;;;;;;;;6251424;23;19904;-92
2023/09/05 06:49:21;;;;;;;;;;;;;;;;;;6260906;23;19935;-94
2023/09/05 06:54:35;;;;;;;;;;;;;;;;;;6259449;23;20035;-95
2023/09/05 07:08:42;;;;;;;;;;;;;;;;;;6191112;23;19905;-95
2023/09/05 07:24:33;;;;;;;;;;;;;;;;;;6190687;23;19911;-96
2023/09/05 07:27:05;;;;;;;;;;;;;;;;;;6163413;23;19979;-94
2023/09/05 07:29:34;;;;;;;;;;;;;;;;;;6163096;23;19994;-94
2023/09/05 07:32:09;;;;;;;;;;;;;;;;;;6177778;23;20238;-94
2023/09/05 07:34:38;;;;;;;;;;;;;;;;;;6227168;23;19986;-94
2023/09/05 07:37:07;;;;;;;;;;;;;;;;;;6224286;23;19904;-95
2023/09/05 07:39:59;;;;;;;;;;;;;;;;;;;;;
2023/09/05 08:35:13;;;;;;;;;;;;;;;;;;6258765;22;19992;-93
2023/09/05 08:37:43;;;;;;;;;;;;;;;;;;6252293;22;19905;-92
2023/09/05 08:40:22;;;;;;;;;;;;;;;;;;6251673;22;19903;-91
2023/09/05 08:42:50;;;;;;;;;;;;;;;;;;6243181;22;19904;-91
2023/09/05 08:45:28;;;;;;;;;;;;;;;;;;6251231;22;19911;-94
2023/09/05 08:48:00;;;;;;;;;;;;;;;;;;6252035;22;19953;-95
2023/09/05 08:50:27;;;;;;;;;;;;;;;;;;6251735;22;19912;-94
2023/09/05 08:53:54;;;;;;;;;;;;;;;;;;6252658;22;20317;-91
2023/09/05 08:55:51;;;;;;;;;;;;;;;;;;6258901;22;19926;-90
2023/09/05 08:58:17;;;;;;;;;;;;;;;;;;6251605;22;19903;-89
2023/09/05 09:00:46;;;;;;;;;;;;;;;;;;6242809;22;20005;-89
2023/09/05 09:03:12;;;;;;;;;;;;;;;;;;6251248;22;19903;-89
2023/09/05 09:05:47;;;;;;;;;;;;;;;;;;6251788;22;19937;-90
2023/09/05 09:08:19;;;;;;;;;;;;;;;;;;6251629;22;19904;-93
2023/09/05 09:10:48;;;;;;;;;;;;;;;;;;6251851;22;19960;-91
2023/09/05 09:13:14;;;;;;;;;;;;;;;;;;6251536;22;19903;-95
2023/09/05 09:15:43;;;;;;;;;;;;;;;;;;6251869;22;19903;-90
2023/09/05 09:18:22;;;;;;;;;;;;;;;;;;6252084;22;19926;-90
2023/09/05 09:23:38;;;;;;;;;;;;;;;;;;6236665;22;19910;-94
2023/09/05 09:26:04;;;;;;;;;;;;;;;;;;6255316;22;19941;-95
2023/09/05 09:28:39;;;;;;;;;;;;;;;;;;6243768;22;20308;-92
2023/09/05 09:39:22;;;;;;;;;;;;;;;;;;6278682;22;20237;-93
2023/09/05 09:41:51;;;;;;;;;;;;;;;;;;6251337;22;20214;-95
2023/09/05 09:44:32;;;;;;;;;;;;;;;;;;6251430;22;19903;-93
2023/09/05 09:49:46;;;;;;;;;;;;;;;;;;6277955;22;20331;-96
2023/09/05 09:52:12;;;;;;;;;;;;;;;;;;6250734;22;20316;-91
2023/09/05 09:54:41;;;;;;;;;;;;;;;;;;6250968;22;20026;-92
2023/09/05 09:57:17;;;;;;;;;;;;;;;;;;;;;
2023/09/05 09:59:43;;;;;;;;;;;;;;;;;;6277852;22;20384;-92
2023/09/05 10:02:09;;;;;;;;;;;;;;;;;;6250727;22;19910;-92
2023/09/05 10:04:41;;;;;;;;;;;;;;;;;;6251647;22;19934;-96
2023/09/05 10:07:26;;;;;;;;;;;;;;;;;;6255440;22;19907;-93
2023/09/05 10:09:52;;;;;;;;;;;;;;;;;;6268938;22;20001;-91
2023/09/05 10:12:21;;;;;;;;;;;;;;;;;;6270219;22;19926;-93
2023/09/05 10:14:47;;;;;;;;;;;;;;;;;;6222045;23;19904;-95
2023/09/05 10:25:27;;;;;;;;;;;;;;;;;;6249341;23;19946;-91
2023/09/05 10:27:59;;;;;;;;;;;;;;;;;;6247019;23;19935;-91
2023/09/05 10:30:24;;;;;;;;;;;;;;;;;;6250955;23;19922;-91
2023/09/05 10:33:03;;;;;;;;;;;;;;;;;;;;;
2023/09/05 10:35:39;;;;;;;;;;;;;;;;;;6248600;23;19982;-91
2023/09/05 10:38:20;;;;;;;;;;;;;;;;;;6248732;23;19904;-92
2023/09/05 10:40:46;;;;;;;;;;;;;;;;;;6242767;22;19995;-91
2023/09/05 10:43:14;;;;;;;;;;;;;;;;;;6217414;23;19907;-92
2023/09/05 10:45:58;;;;;;;;;;;;;;;;;;6217386;23;19915;-94
2023/09/05 10:59:38;;;;;;;;;;;;;;;;;;6082867;23;19936;-94
2023/09/05 11:02:05;;;;;;;;;;;;;;;;;;6056241;23;19909;-96
2023/09/05 11:07:11;;;;;;;;;;;;;;;;;;6289001;22;19926;-94
2023/09/05 11:09:40;;;;;;;;;;;;;;;;;;6254461;22;19907;-92
2023/09/05 11:15:05;;;;;;;;;;;;;;;;;;6203852;22;20921;-90
2023/09/05 11:17:39;;;;;;;;;;;;;;;;;;6258701;22;20630;-91
2023/09/05 11:25:28;;;;;;;;;;;;;;;;;;6283994;22;19907;-92
2023/09/05 11:28:00;;;;;;;;;;;;;;;;;;6262843;22;19904;-90
2023/09/05 11:30:27;;;;;;;;;;;;;;;;;;6263474;22;20244;-92
2023/09/05 11:32:59;;;;;;;;;;;;;;;;;;6249022;22;19903;-92
2023/09/05 11:35:38;;;;;;;;;;;;;;;;;;;;;
2023/09/05 11:38:07;;;;;;;;;;;;;;;;;;6283893;22;20240;-93
2023/09/05 11:40:38;;;;;;;;;;;;;;;;;;6253676;22;19903;-90
2023/09/05 11:43:27;;;;;;;;;;;;;;;;;;6251372;22;20011;-90
2023/09/05 11:48:46;;;;;;;;;;;;;;;;;;6186127;23;19905;-93
2023/09/05 11:51:14;;;;;;;;;;;;;;;;;;6250134;22;19911;-91
2023/09/05 11:53:40;;;;;;;;;;;;;;;;;;6251294;22;19931;-91
2023/09/05 11:56:09;;;;;;;;;;;;;;;;;;6252414;22;19910;-93
2023/09/05 11:58:38;;;;;;;;;;;;;;;;;;6252642;22;19982;-90
2023/09/05 12:01:04;;;;;;;;;;;;;;;;;;6251895;22;19956;-91
2023/09/05 12:03:33;;;;;;;;;;;;;;;;;;6252006;22;19946;-94
2023/09/05 12:05:59;;;;;;;;;;;;;;;;;;6251972;22;19903;-91
2023/09/05 12:08:31;;;;;;;;;;;;;;;;;;6252016;22;19907;-92
2023/09/05 12:10:58;;;;;;;;;;;;;;;;;;6251800;22;19915;-91
2023/09/05 12:13:29;;;;;;;;;;;;;;;;;;6251517;22;19903;-90
2023/09/05 12:15:55;;;;;;;;;;;;;;;;;;6252864;22;19908;-91
2023/09/05 12:18:27;;;;;;;;;;;;;;;;;;6252192;22;19904;-92
2023/09/05 12:20:54;;;;;;;;;;;;;;;;;;6248598;22;19908;-92
2023/09/05 12:23:23;;;;;;;;;;;;;;;;;;6252059;22;19933;-91
2023/09/05 12:25:58;;;;;;;;;;;;;;;;;;6251735;22;19931;-91
2023/09/05 12:28:24;;;;;;;;;;;;;;;;;;6251455;22;19965;-92
2023/09/05 12:30:56;;;;;;;;;;;;;;;;;;6251959;22;20232;-93
2023/09/05 12:33:22;;;;;;;;;;;;;;;;;;6251686;22;19903;-90
2023/09/05 12:35:47;;;;;;;;;;;;;;;;;;6252178;22;19910;-90
2023/09/05 12:38:17;;;;;;;;;;;;;;;;;;6251965;22;19970;-92
2023/09/05 12:40:46;;;;;;;;;;;;;;;;;;6252007;22;19910;-91
2023/09/05 12:43:21;;;;;;;;;;;;;;;;;;6214688;23;19904;-94
2023/09/05 12:45:49;;;;;;;;;;;;;;;;;;6190704;23;19998;-90
2023/09/05 12:48:15;;;;;;;;;;;;;;;;;;6190162;23;19987;-94
2023/09/05 12:50:44;;;;;;;;;;;;;;;;;;6190239;23;19966;-96
2023/09/05 13:51:21;;;;;;;;;;;;;;;;;;6246734;22;19919;-94
2023/09/05 13:53:47;;;;;;;;;;;;;;;;;;6251692;22;19911;-88
2023/09/05 13:56:13;;;;;;;;;;;;;;;;;;6251955;22;19904;-87
2023/09/05 13:58:39;;;;;;;;;;;;;;;;;;6251215;22;19988;-88
2023/09/05 14:01:05;;;;;;;;;;;;;;;;;;6251364;22;19903;-87
2023/09/05 14:03:31;;;;;;;;;;;;;;;;;;6251464;22;19910;-88
2023/09/05 14:05:57;;;;;;;;;;;;;;;;;;6251303;22;19904;-88
2023/09/05 14:08:24;;;;;;;;;;;;;;;;;;6251129;22;20224;-92
2023/09/05 14:10:50;;;;;;;;;;;;;;;;;;6251359;22;19911;-90
2023/09/05 14:16:22;;;;;;;;;;;;;;;;;;6196050;23;19910;-93
2023/09/05 14:27:14;;;;;;;;;;;;;;;;;;6131615;23;19912;-96
2023/09/05 14:40:43;;;;;;;;;;;;;;;;;;6195397;23;19900;-96
2023/09/05 14:43:19;;;;;;;;;;;;;;;;;;;;;
2023/09/05 14:51:15;;;;;;;;;;;;;;;;;;6261011;22;20303;-96
2023/09/05 14:54:11;;;;;;;;;;;;;;;;;;;;;
2023/09/05 14:56:39;;;;;;;;;;;;;;;;;;6202765;23;19895;-96
2023/09/05 15:04:38;;;;;;;;;;;;;;;;;;6181827;23;19931;-96
2023/09/05 15:07:56;;;;;;;;;;;;;;;;;;;;;
2023/09/05 15:19:05;;;;;;;;;;;;;;;;;;5968498;24;19912;-96
2023/09/05 15:21:46;;;;;;;;;;;;;;;;;;5976380;23;19931;-96
2023/09/05 15:24:12;;;;;;;;;;;;;;;;;;6011998;23;19941;-96
2023/09/05 15:26:47;;;;;;;;;;;;;;;;;;6007042;23;19931;-96
2023/09/05 15:29:26;;;;;;;;;;;;;;;;;;5993578;23;19914;-96
2023/09/05 15:43:36;;;;;;;;;;;;;;;;;;6063153;23;19931;-96
2023/09/05 15:46:05;;;;;;;;;;;;;;;;;;6059777;23;19890;-96
2023/09/05 15:59:01;;;;;;;;;;;;;;;;;;6247659;22;19930;-95
2023/09/05 16:09:33;;;;;;;;;;;;;;;;;;6296554;22;19923;-96
2023/09/05 16:12:10;;;;;;;;;;;;;;;;;;6287081;22;19904;-95
2023/09/05 16:14:42;;;;;;;;;;;;;;;;;;6258991;22;19905;-95
2023/09/05 16:17:21;;;;;;;;;;;;;;;;;;;;;
2023/09/05 16:19:51;;;;;;;;;;;;;;;;;;6284943;22;19926;-96
2023/09/05 16:22:20;;;;;;;;;;;;;;;;;;6258330;22;19952;-95
2023/09/05 16:24:50;;;;;;;;;;;;;;;;;;6257851;22;19919;-95
2023/09/05 16:30:15;;;;;;;;;;;;;;;;;;;;;
2023/09/05 16:32:42;;;;;;;;;;;;;;;;;;6283559;22;19942;-95
2023/09/05 16:37:59;;;;;;;;;;;;;;;;;;6282920;22;19986;-96
2023/09/05 16:40:35;;;;;;;;;;;;;;;;;;6219895;23;19916;-96
2023/09/05 16:43:04;;;;;;;;;;;;;;;;;;6196391;23;20429;-96
2023/09/05 16:45:36;;;;;;;;;;;;;;;;;;6195441;23;19937;-95
2023/09/05 16:53:41;;;;;;;;;;;;;;;;;;6132444;23;19905;-96
2023/09/05 16:56:11;;;;;;;;;;;;;;;;;;6108904;23;20326;-96
2023/09/05 16:58:37;;;;;;;;;;;;;;;;;;6110951;23;19909;-96
2023/09/05 17:01:07;;;;;;;;;;;;;;;;;;6114545;23;19905;-96
2023/09/05 17:03:52;;;;;;;;;;;;;;;;;;;;;
2023/09/05 17:30:29;;;;;;;;;;;;;;;;;;6286030;22;19915;-96
2023/09/05 17:33:37;;;;;;;;;;;;;;;;;;6259914;22;19907;-95
2023/09/05 17:54:46;;;;;;;;;;;;;;;;;;6290268;22;19923;-95
